Annapolis, MD (21402)

3:20 PM EST on December 02, 2016 (GMT -0500)
Jefferson Street | | Change Station

Elev 16 ft 38.97 °N, 76.49 °W | Updated 9 minutes ago

Clear
Clear
53.4 °F
Feels Like 53.4 °F
N
3.1
Wind Variable Wind from NW
Gusts 10.6 mph

Today
High -- | Low -- °F
--% Chance of Precip.
Yesterday
High -- | Low -- °F
Precip. -- in
Pressure 30.02 in
Visibility 10.0 miles
Clouds Clear
Dew Point 37 °F
Humidity 53%
Rainfall 0.00 in
Snow Depth Not available.
7:07 AM 4:43 PM
Waxing Crescent, 10% visible
METAR KNAK 021954Z AUTO 31012G20KT 10SM CLR 11/M01 A3001 RMK AO2 SLP164 T01111011
Pressure 30.02 in
Visibility 10.0 miles
Clouds Clear
Dew Point 37 °F
Humidity 53%
Rainfall 0.00 in
Snow Depth Not available.
7:07 AM 4:43 PM
Waxing Crescent, 10% visible
METAR KNAK 021954Z AUTO 31012G20KT 10SM CLR 11/M01 A3001 RMK AO2 SLP164 T01111011

10-Day Weather Forecast

Almanac

Astronomy

Dec. 02, 2016 Rise Set
Actual Time
Civil Twilight
Nautical Twilight
Astronomical Twilight
Moon
Length of Visible Light
Length of Day
Tomorrow will be .
, % of the Moon is Illuminated

Today's Extremes

State Highs State Lows

Community

WunderPhotos

Upload Photos

1,955,348 photos uploaded!

WunderBlog® & News

Nearby

Air Quality

  Air Quality AQ Index Pollutant
Not available.

Snow Depth

Station Depth Elevation

Earthquake Activity

City Distance Mag. Time & Date
Minimum magnitude displayed is 2.5.

Coastal Water Temperatures

Place Temperature

Stations

Nearby Weather Stations

Station Location Temp. Windchill Dew Point Humidity Wind Precip. Elev Updated Type
                   

Watches & Warnings

There are currently no watches in effect.